Time;durP1;ratioP1;P1;durP2;ratioP2;P2;SDS_P1;SDS_P2;PMS_P1;PMS_P2;Temp;Humidity;BMP_temperature;BMP_pressure;BME280_temperature;BME280_humidity;BME280_pressure;Samples;Min_cycle;Max_cycle;Signal;HPM_P1;HPM_P2
2022/05/14 00:00:42;;;;;;;10.23;4.18;;;14.80;95.80;;;;;;4972806;28;20186;-81
2022/05/14 00:03:09;;;;;;;9.18;3.90;;;14.80;95.90;;;;;;4973071;28;20034;-81
2022/05/14 00:05:35;;;;;;;13.10;3.35;;;14.80;96.00;;;;;;4972730;28;20034;-81
2022/05/14 00:08:02;;;;;;;8.85;3.63;;;14.70;96.10;;;;;;4972699;28;20039;-81
2022/05/14 00:10:30;;;;;;;10.43;4.80;;;14.70;96.10;;;;;;4971211;28;20042;-81
2022/05/14 00:13:05;;;;;;;9.63;4.15;;;14.70;96.20;;;;;;4972626;28;20073;-81
2022/05/14 00:15:39;;;;;;;9.50;3.85;;;14.70;96.30;;;;;;4971450;28;20066;-80
2022/05/14 00:18:07;;;;;;;11.05;4.13;;;14.60;96.30;;;;;;4972832;28;20173;-81
2022/05/14 00:20:33;;;;;;;9.30;3.60;;;14.60;96.50;;;;;;4972455;28;20427;-81
2022/05/14 00:22:59;;;;;;;8.25;3.30;;;14.50;96.50;;;;;;4972601;28;20043;-81
2022/05/14 00:25:26;;;;;;;11.27;3.50;;;14.50;96.60;;;;;;4971153;28;20041;-81
2022/05/14 00:27:52;;;;;;;9.30;3.20;;;14.50;96.70;;;;;;4972313;28;20085;-81
2022/05/14 00:30:20;;;;;;;7.47;3.20;;;14.40;96.70;;;;;;4970958;28;20467;-81
2022/05/14 00:32:47;;;;;;;9.40;3.22;;;14.40;96.80;;;;;;4971231;28;20050;-81
2022/05/14 00:35:13;;;;;;;7.70;3.00;;;14.30;97.00;;;;;;4971871;28;20046;-81
2022/05/14 00:37:39;;;;;;;8.85;3.53;;;14.30;97.10;;;;;;4972011;28;20027;-81
2022/05/14 00:40:12;;;;;;;8.15;3.50;;;14.30;97.20;;;;;;4972090;28;20493;-81
2022/05/14 00:42:38;;;;;;;8.55;3.42;;;14.30;97.30;;;;;;4971175;28;20072;-81
2022/05/14 00:45:07;;;;;;;6.38;3.40;;;14.20;97.40;;;;;;4970875;28;20093;-80
2022/05/14 00:47:36;;;;;;;8.98;3.25;;;14.20;97.50;;;;;;4972010;28;20394;-81
2022/05/14 00:50:13;;;;;;;9.98;2.97;;;14.20;97.40;;;;;;4972056;28;20109;-81
2022/05/14 00:52:39;;;;;;;11.93;3.33;;;14.10;97.60;;;;;;4970753;28;20066;-81
2022/05/14 00:55:06;;;;;;;8.07;3.45;;;14.10;97.60;;;;;;4971116;28;20026;-81
2022/05/14 00:57:37;;;;;;;10.07;3.53;;;14.00;97.70;;;;;;4971732;28;20035;-81
2022/05/14 01:00:13;;;;;;;9.20;3.20;;;14.00;97.70;;;;;;4970642;28;20118;-81
2022/05/14 01:02:39;;;;;;;9.15;3.25;;;14.00;97.70;;;;;;4970790;28;20126;-81
2022/05/14 01:05:06;;;;;;;9.35;3.38;;;14.00;97.80;;;;;;4971994;28;20126;-81
2022/05/14 01:07:32;;;;;;;8.10;3.15;;;13.90;97.80;;;;;;4970376;28;20026;-81
2022/05/14 01:10:01;;;;;;;8.95;3.72;;;13.90;97.90;;;;;;4971716;28;20030;-81
2022/05/14 01:12:30;;;;;;;9.13;3.90;;;13.90;97.90;;;;;;4970585;28;20038;-81
2022/05/14 01:15:07;;;;;;;12.13;3.50;;;13.80;98.00;;;;;;4970643;28;20030;-81
2022/05/14 01:17:33;;;;;;;9.32;3.47;;;13.80;98.20;;;;;;4970449;28;20042;-81
2022/05/14 01:20:00;;;;;;;9.93;3.95;;;13.90;98.20;;;;;;4970378;28;20086;-81
2022/05/14 01:22:38;;;;;;;12.10;4.30;;;13.80;98.20;;;;;;4970508;28;20030;-81
2022/05/14 01:28:12;;;;;;;7.20;3.08;;;13.80;98.50;;;;;;4970440;28;20043;-81
2022/05/14 01:30:59;;;;;;;9.82;4.00;;;13.70;98.50;;;;;;4970172;28;20035;-81
2022/05/14 01:33:26;;;;;;;13.13;4.82;;;13.70;98.60;;;;;;4970319;28;20031;-81
2022/05/14 01:35:53;;;;;;;10.25;4.38;;;13.60;98.70;;;;;;4971344;28;20403;-81
2022/05/14 01:38:22;;;;;;;9.90;4.18;;;13.60;98.70;;;;;;4970281;28;20034;-81
2022/05/14 01:40:49;;;;;;;10.82;4.30;;;13.60;98.80;;;;;;4970246;28;20041;-81
2022/05/14 01:43:15;;;;;;;9.85;4.00;;;13.60;98.90;;;;;;4970564;28;20042;-81
2022/05/14 01:45:41;;;;;;;8.50;4.22;;;13.50;99.00;;;;;;4970049;28;20406;-81
2022/05/14 01:48:08;;;;;;;9.52;4.50;;;13.50;99.10;;;;;;4974016;28;20034;-81
2022/05/14 01:50:34;;;;;;;7.63;3.80;;;13.50;99.20;;;;;;4973757;28;20118;-81
2022/05/14 01:53:00;;;;;;;12.20;4.32;;;13.50;99.30;;;;;;4973923;28;20035;-81
2022/05/14 01:55:26;;;;;;;14.85;4.82;;;13.50;99.40;;;;;;4973994;28;20027;-81
2022/05/14 01:57:52;;;;;;;11.35;4.28;;;13.50;99.50;;;;;;4974904;28;20030;-81
2022/05/14 02:00:21;;;;;;;8.77;3.88;;;13.40;99.70;;;;;;4973619;28;20042;-81
2022/05/14 02:02:51;;;;;;;9.30;4.13;;;13.40;99.80;;;;;;4975134;28;20506;-81
2022/05/14 02:05:18;;;;;;;10.25;4.05;;;13.40;99.90;;;;;;4973628;28;20034;-82
2022/05/14 02:07:44;;;;;;;15.13;4.43;;;13.40;99.90;;;;;;4973877;28;20090;-81
2022/05/14 02:10:11;;;;;;;13.25;4.65;;;13.40;99.90;;;;;;4974939;28;20038;-81
2022/05/14 02:12:37;;;;;;;7.90;4.07;;;13.40;99.90;;;;;;4974819;28;20483;-81
2022/05/14 02:15:04;;;;;;;7.65;4.03;;;13.30;99.90;;;;;;4957547;28;20031;-81
2022/05/14 02:17:30;;;;;;;8.82;3.83;;;13.40;99.90;;;;;;4973189;28;20035;-81
2022/05/14 02:19:56;;;;;;;11.10;4.10;;;13.50;99.90;;;;;;4973181;28;20034;-81
2022/05/14 02:22:22;;;;;;;12.13;4.85;;;13.50;99.90;;;;;;4973747;28;20486;-81
2022/05/14 02:24:48;;;;;;;12.07;4.13;;;13.50;99.90;;;;;;4957299;28;20034;-81
2022/05/14 02:27:14;;;;;;;9.13;4.00;;;13.50;99.90;;;;;;4973164;28;20037;-81
2022/05/14 02:29:56;;;;;;;9.85;3.92;;;13.50;99.90;;;;;;4973181;28;20034;-81
2022/05/14 02:32:26;;;;;;;7.70;4.05;;;13.40;99.90;;;;;;4974519;28;20035;-81
2022/05/14 02:34:53;;;;;;;8.13;3.90;;;13.30;99.90;;;;;;4974613;28;20372;-81
2022/05/14 02:37:24;;;;;;;9.50;4.00;;;13.40;99.90;;;;;;4974107;28;20034;-81
2022/05/14 02:39:51;;;;;;;10.35;4.10;;;13.40;99.90;;;;;;4972989;28;20030;-81
2022/05/14 02:42:17;;;;;;;11.02;3.88;;;13.30;99.90;;;;;;4973202;28;20115;-81
2022/05/14 02:44:43;;;;;;;11.65;4.30;;;13.30;99.90;;;;;;4973089;28;20038;-81
2022/05/14 02:47:10;;;;;;;8.82;3.80;;;13.40;99.90;;;;;;4972710;28;20054;-81
2022/05/14 02:49:36;;;;;;;10.15;4.00;;;13.40;99.90;;;;;;4956613;28;20042;-81
2022/05/14 02:52:03;;;;;;;9.02;3.88;;;13.30;99.90;;;;;;4974214;28;20023;-81
2022/05/14 02:54:29;;;;;;;9.07;3.92;;;13.30;99.90;;;;;;4974182;28;20031;-81
2022/05/14 02:56:56;;;;;;;9.45;3.70;;;13.30;99.90;;;;;;4972524;28;20034;-81
2022/05/14 02:59:22;;;;;;;8.43;3.72;;;13.30;99.90;;;;;;4956238;28;20378;-81
2022/05/14 03:01:48;;;;;;;10.63;3.72;;;13.20;99.90;;;;;;4973971;28;20038;-81
2022/05/14 03:04:23;;;;;;;;;;;13.30;99.90;;;;;;4973470;28;20026;-81
2022/05/14 03:06:51;;;;;;;6.32;3.28;;;13.30;99.90;;;;;;4973760;28;19917;-81
2022/05/14 03:09:16;;;;;;;9.98;3.75;;;13.30;99.90;;;;;;4972550;28;20034;-81
2022/05/14 03:11:42;;;;;;;10.10;3.90;;;13.30;99.90;;;;;;4973760;28;20077;-81
2022/05/14 03:14:09;;;;;;;9.00;3.78;;;13.30;99.90;;;;;;4973655;28;20031;-81
2022/05/14 03:16:35;;;;;;;9.50;3.88;;;13.30;99.90;;;;;;4972068;28;20461;-81
2022/05/14 03:19:01;;;;;;;7.90;3.63;;;13.20;99.90;;;;;;4972196;28;20110;-81
2022/05/14 03:21:26;;;;;;;10.68;3.95;;;13.20;99.90;;;;;;4972365;28;20475;-81
2022/05/14 03:23:52;;;;;;;8.88;3.60;;;13.20;99.90;;;;;;4973779;28;20503;-81
2022/05/14 03:26:18;;;;;;;9.68;3.97;;;13.10;99.90;;;;;;4973423;28;20026;-81
2022/05/14 03:28:44;;;;;;;10.07;3.92;;;13.10;99.90;;;;;;4973312;28;20031;-81
2022/05/14 03:31:09;;;;;;;8.50;3.45;;;13.20;99.90;;;;;;4972258;28;20093;-81
2022/05/14 03:33:35;;;;;;;8.82;3.92;;;13.20;99.90;;;;;;4973356;28;20113;-81
2022/05/14 03:36:01;;;;;;;6.10;3.50;;;13.10;99.90;;;;;;4973179;28;20098;-81
2022/05/14 03:38:27;;;;;;;7.38;3.40;;;13.10;99.90;;;;;;4972249;28;20316;-81
2022/05/14 03:40:53;;;;;;;11.57;3.70;;;13.10;99.90;;;;;;4971869;28;20058;-81
2022/05/14 03:43:19;;;;;;;8.48;3.70;;;13.10;99.90;;;;;;4971873;28;20121;-81
2022/05/14 03:45:45;;;;;;;8.13;3.50;;;13.10;99.90;;;;;;4972973;28;20023;-81
2022/05/14 03:48:10;;;;;;;10.30;3.67;;;13.10;99.90;;;;;;4973133;28;20439;-81
2022/05/14 03:50:36;;;;;;;6.50;3.50;;;13.10;99.90;;;;;;4971571;28;20597;-81
2022/05/14 03:53:02;;;;;;;7.28;3.35;;;13.20;99.90;;;;;;4973109;28;20034;-81
2022/05/14 03:55:28;;;;;;;9.10;4.28;;;13.10;99.90;;;;;;4971814;28;20579;-81
2022/05/14 03:57:54;;;;;;;9.52;3.70;;;13.10;99.90;;;;;;4972727;28;20121;-81
2022/05/14 04:00:20;;;;;;;8.35;3.80;;;13.00;99.90;;;;;;4972835;28;20027;-81
2022/05/14 04:02:47;;;;;;;10.65;3.50;;;13.00;99.90;;;;;;4971724;28;20079;-81
2022/05/14 04:05:14;;;;;;;9.88;3.90;;;13.00;99.90;;;;;;4972903;28;20094;-81
2022/05/14 04:07:42;;;;;;;11.40;3.80;;;13.00;99.90;;;;;;4971302;28;20031;-81
2022/05/14 04:10:12;;;;;;;7.53;3.60;;;12.90;99.90;;;;;;4970670;28;20046;-81
2022/05/14 04:12:38;;;;;;;8.95;3.45;;;12.90;99.90;;;;;;4971532;28;20549;-81
2022/05/14 04:15:05;;;;;;;10.20;3.80;;;12.80;99.90;;;;;;4971437;28;20038;-81
2022/05/14 04:17:31;;;;;;;9.15;3.88;;;12.80;99.90;;;;;;4970898;28;20027;-81
2022/05/14 04:19:59;;;;;;;5.38;3.35;;;12.80;99.90;;;;;;4971299;28;20242;-81
2022/05/14 04:22:25;;;;;;;7.68;3.35;;;12.90;99.90;;;;;;4971400;28;20459;-81
2022/05/14 04:24:51;;;;;;;8.10;4.10;;;12.90;99.90;;;;;;4955158;28;20553;-81
2022/05/14 04:27:19;;;;;;;9.52;3.67;;;12.90;99.90;;;;;;4970933;28;20037;-81
2022/05/14 04:29:45;;;;;;;9.57;3.80;;;12.90;99.90;;;;;;4955105;28;20337;-81
2022/05/14 04:32:11;;;;;;;9.15;3.50;;;12.90;99.90;;;;;;4971254;28;20039;-81
2022/05/14 04:34:38;;;;;;;8.95;3.75;;;12.90;99.90;;;;;;4971127;28;20029;-81
2022/05/14 04:37:04;;;;;;;12.02;3.50;;;12.90;99.90;;;;;;4970793;28;20110;-81
2022/05/14 04:39:32;;;;;;;6.90;3.80;;;13.00;99.90;;;;;;4970748;28;20034;-82
2022/05/14 04:42:05;;;;;;;9.85;3.50;;;12.90;99.90;;;;;;4971084;28;20023;-81
2022/05/14 04:44:33;;;;;;;9.80;4.15;;;12.90;99.90;;;;;;4971103;28;20118;-81
2022/05/14 04:46:59;;;;;;;8.25;3.67;;;13.00;99.90;;;;;;4971951;28;20096;-80
2022/05/14 04:49:24;;;;;;;11.20;4.10;;;12.90;99.90;;;;;;4970709;28;20130;-81
2022/05/14 04:51:50;;;;;;;8.50;3.55;;;13.00;99.90;;;;;;4970808;28;20118;-81
2022/05/14 04:54:16;;;;;;;7.45;3.05;;;13.10;99.90;;;;;;4971983;28;20075;-81
2022/05/14 04:56:44;;;;;;;7.10;3.38;;;13.10;99.90;;;;;;4970707;28;20034;-81
2022/05/14 04:59:11;;;;;;;7.18;2.97;;;13.10;99.90;;;;;;4970561;28;20031;-81
2022/05/14 05:01:37;;;;;;;7.20;3.30;;;13.20;99.90;;;;;;4970578;28;20023;-81
2022/05/14 05:04:03;;;;;;;11.15;3.40;;;13.20;99.90;;;;;;4972172;28;20475;-81
2022/05/14 05:06:28;;;;;;;8.02;3.30;;;13.30;99.90;;;;;;4970455;28;20031;-81
2022/05/14 05:08:55;;;;;;;9.32;2.42;;;13.40;99.90;;;;;;4970367;28;20036;-81
2022/05/14 05:11:22;;;;;;;9.45;3.03;;;13.50;99.90;;;;;;4971888;28;20161;-81
2022/05/14 05:13:49;;;;;;;7.70;2.60;;;13.60;99.40;;;;;;4971859;28;20062;-81
2022/05/14 05:16:14;;;;;;;7.90;2.95;;;13.70;98.90;;;;;;4971519;28;20069;-82
2022/05/14 05:18:40;;;;;;;7.30;2.80;;;13.70;98.80;;;;;;4971673;28;20038;-82
2022/05/14 05:21:07;;;;;;;8.70;2.75;;;13.70;98.80;;;;;;4972617;28;20019;-82
2022/05/14 05:23:33;;;;;;;7.72;2.53;;;13.80;98.80;;;;;;4976100;28;20045;-82
2022/05/14 05:25:59;;;;;;;13.05;3.65;;;13.70;98.70;;;;;;4975782;28;20110;-82
2022/05/14 05:28:26;;;;;;;10.23;2.90;;;13.80;98.60;;;;;;4975884;28;20031;-82
2022/05/14 05:30:52;;;;;;;8.43;2.92;;;13.80;98.50;;;;;;4975561;28;20041;-82
2022/05/14 05:33:21;;;;;;;6.93;2.63;;;13.90;98.50;;;;;;4975760;28;20045;-82
2022/05/14 05:35:47;;;;;;;10.00;2.75;;;13.80;98.70;;;;;;4975376;28;20434;-82
2022/05/14 05:38:13;;;;;;;7.40;2.58;;;13.90;98.80;;;;;;4974493;28;20037;-82
2022/05/14 05:40:39;;;;;;;8.02;3.25;;;13.90;98.60;;;;;;4975262;28;20062;-82
2022/05/14 05:43:06;;;;;;;13.30;5.88;;;14.00;98.30;;;;;;4974371;28;20073;-82
2022/05/14 05:45:32;;;;;;;33.05;5.80;;;14.00;98.10;;;;;;4975305;28;20135;-82
2022/05/14 05:47:59;;;;;;;15.25;4.55;;;14.10;97.90;;;;;;4975297;28;20042;-82
2022/05/14 05:50:25;;;;;;;16.02;3.60;;;14.10;97.80;;;;;;4957692;28;20030;-82
2022/05/14 05:52:52;;;;;;;20.13;6.13;;;14.20;97.60;;;;;;4973958;28;20114;-82
2022/05/14 05:58:03;;;;;;;13.27;3.13;;;14.30;97.40;;;;;;4975276;28;20034;-82
2022/05/14 06:00:30;;;;;;;15.73;3.78;;;14.30;97.00;;;;;;4975496;28;20100;-82
2022/05/14 06:02:56;;;;;;;14.10;3.50;;;14.30;96.70;;;;;;4975066;28;20039;-82
2022/05/14 06:05:23;;;;;;;24.48;4.85;;;14.30;96.70;;;;;;4975249;28;20026;-82
2022/05/14 06:07:48;;;;;;;15.23;4.85;;;14.30;96.40;;;;;;4975006;28;20031;-82
2022/05/14 06:10:18;;;;;;;24.40;5.63;;;14.40;96.40;;;;;;4974709;28;20057;-82
2022/05/14 06:12:46;;;;;;;12.05;4.50;;;14.40;96.20;;;;;;4974955;28;20139;-82
2022/05/14 06:15:15;;;;;;;9.18;3.55;;;14.40;96.00;;;;;;4974800;28;20094;-82
2022/05/14 06:17:43;;;;;;;30.15;5.78;;;14.40;96.10;;;;;;5003754;23;20050;-79
2022/05/14 06:20:12;;;;;;;10.88;3.53;;;14.40;96.10;;;;;;4992389;28;20034;-78
2022/05/14 06:22:38;;;;;;;12.73;4.20;;;14.50;96.10;;;;;;4994172;28;20034;-78
2022/05/14 06:25:05;;;;;;;24.00;5.28;;;14.50;96.10;;;;;;4994579;28;20049;-79
2022/05/14 06:27:31;;;;;;;17.02;4.75;;;14.50;96.00;;;;;;4993842;28;20038;-79
2022/05/14 06:29:57;;;;;;;22.80;6.75;;;14.60;96.10;;;;;;4993854;28;20077;-78
2022/05/14 06:32:23;;;;;;;18.17;5.90;;;14.60;96.10;;;;;;4993474;28;20069;-78
2022/05/14 06:34:48;;;;;;;10.73;4.57;;;14.60;95.90;;;;;;4993767;28;20053;-79
2022/05/14 06:37:14;;;;;;;14.10;5.25;;;14.60;95.80;;;;;;4992226;28;20038;-78
2022/05/14 06:39:42;;;;;;;10.73;4.32;;;14.70;95.90;;;;;;4992542;28;20565;-78
2022/05/14 06:42:08;;;;;;;15.02;4.90;;;14.70;95.90;;;;;;4993888;28;20026;-78
2022/05/14 06:44:36;;;;;;;14.20;5.10;;;14.70;95.90;;;;;;4993797;28;20030;-78
2022/05/14 06:47:02;;;;;;;16.17;5.50;;;14.70;95.90;;;;;;4993601;28;20092;-78
2022/05/14 06:49:28;;;;;;;10.45;4.07;;;14.80;95.80;;;;;;4993530;28;20033;-78
2022/05/14 06:51:57;;;;;;;15.10;4.55;;;14.80;96.10;;;;;;4993547;28;20030;-78
2022/05/14 06:54:23;;;;;;;;;;;14.80;96.20;;;;;;4994139;28;20030;-78
2022/05/14 06:56:52;;;;;;;11.30;4.03;;;14.80;96.30;;;;;;4993550;28;19909;-78
2022/05/14 06:59:17;;;;;;;12.98;5.25;;;14.90;96.40;;;;;;4993426;28;20398;-78
2022/05/14 07:01:46;;;;;;;20.45;5.85;;;14.90;96.30;;;;;;4993567;28;20026;-78
2022/05/14 07:07:03;;;;;;;21.88;7.70;;;14.90;96.20;;;;;;4993182;28;20491;-78
2022/05/14 07:09:29;;;;;;;15.30;5.18;;;14.90;96.20;;;;;;4993201;28;20049;-78
2022/05/14 07:12:03;;;;;;;14.60;4.95;;;14.90;96.30;;;;;;4992018;28;20034;-78
2022/05/14 07:14:30;;;;;;;12.98;6.15;;;15.00;96.50;;;;;;4993161;28;20030;-78
2022/05/14 07:16:56;;;;;;;15.98;5.47;;;15.00;96.30;;;;;;4992843;28;20038;-78
2022/05/14 07:19:23;;;;;;;18.00;5.68;;;15.00;96.30;;;;;;4993048;28;20030;-78
2022/05/14 07:21:50;;;;;;;19.67;5.82;;;15.00;96.10;;;;;;4991804;28;20030;-78
2022/05/14 07:24:20;;;;;;;14.90;5.05;;;15.00;96.30;;;;;;4993262;28;20034;-78
2022/05/14 07:26:46;;;;;;;15.13;5.50;;;15.10;96.40;;;;;;4992753;28;20494;-78
2022/05/14 07:29:15;;;;;;;13.43;5.75;;;15.10;96.80;;;;;;4992641;28;20120;-78
2022/05/14 07:31:41;;;;;;;18.88;5.75;;;15.10;96.40;;;;;;4992857;28;20434;-78
2022/05/14 07:34:08;;;;;;;13.40;5.15;;;15.10;96.50;;;;;;4992989;28;20030;-78
2022/05/14 07:36:49;;;;;;;14.85;4.85;;;15.20;96.70;;;;;;4992551;28;20026;-78
2022/05/14 07:39:16;;;;;;;13.88;5.30;;;15.10;96.90;;;;;;4993079;28;20034;-78
2022/05/14 07:41:48;;;;;;;16.70;6.25;;;15.30;96.90;;;;;;4992647;28;20116;-78
2022/05/14 07:44:17;;;;;;;12.52;4.80;;;15.30;96.60;;;;;;4992141;28;20164;-78
2022/05/14 07:46:45;;;;;;;12.27;5.18;;;15.30;96.60;;;;;;4992046;28;20026;-78
2022/05/14 07:49:12;;;;;;;17.33;6.18;;;15.40;96.70;;;;;;4992478;28;20113;-78
2022/05/14 07:51:39;;;;;;;18.10;6.70;;;15.40;96.60;;;;;;4992339;28;20034;-78
2022/05/14 07:54:06;;;;;;;16.35;6.03;;;15.40;96.50;;;;;;4992324;28;20038;-78
2022/05/14 07:56:32;;;;;;;16.90;6.38;;;15.40;96.80;;;;;;4992195;28;20031;-78
2022/05/14 07:58:58;;;;;;;12.52;5.53;;;15.50;96.50;;;;;;4992209;28;20029;-78
2022/05/14 08:01:24;;;;;;;22.60;8.43;;;15.50;96.50;;;;;;4992522;28;20391;-78
2022/05/14 08:03:51;;;;;;;18.10;7.90;;;15.60;96.40;;;;;;4992482;28;20402;-78
2022/05/14 08:06:17;;;;;;;16.63;6.95;;;15.60;96.40;;;;;;4992459;28;20042;-78
2022/05/14 08:08:44;;;;;;;17.20;7.75;;;15.60;96.50;;;;;;4992042;28;20573;-78
2022/05/14 08:11:10;;;;;;;14.02;6.78;;;15.70;96.60;;;;;;4992080;28;20117;-78
2022/05/14 08:13:37;;;;;;;17.42;8.50;;;15.70;96.50;;;;;;4992301;28;20038;-78
2022/05/14 08:16:04;;;;;;;15.18;6.57;;;15.80;96.60;;;;;;4991768;28;20034;-78
2022/05/14 08:18:30;;;;;;;16.02;7.13;;;15.80;96.40;;;;;;4992070;28;20096;-78
2022/05/14 08:20:56;;;;;;;19.75;8.77;;;15.80;96.60;;;;;;4992109;28;20033;-77
2022/05/14 08:26:08;;;;;;;26.88;12.18;;;15.90;96.80;;;;;;4991749;28;20101;-78
2022/05/14 08:28:34;;;;;;;19.08;8.50;;;15.90;97.10;;;;;;4990466;28;20082;-78
2022/05/14 08:31:00;;;;;;;23.30;9.32;;;16.00;97.00;;;;;;4991873;28;20569;-78
2022/05/14 08:33:27;;;;;;;21.25;7.35;;;16.00;97.10;;;;;;4991869;28;20030;-78
2022/05/14 08:35:54;;;;;;;17.17;7.05;;;16.00;97.20;;;;;;4991434;28;20117;-78
2022/05/14 08:38:22;;;;;;;18.65;6.53;;;16.10;97.20;;;;;;4991719;28;20030;-77
2022/05/14 08:40:55;;;;;;;17.15;6.20;;;16.10;97.00;;;;;;4991563;28;20037;-77
2022/05/14 08:43:38;;;;;;;13.48;5.00;;;16.10;97.30;;;;;;4991901;28;20049;-78
2022/05/14 08:46:08;;;;;;;12.65;4.80;;;16.10;97.40;;;;;;4991343;28;20045;-78
2022/05/14 08:48:37;;;;;;;18.50;5.88;;;16.10;97.40;;;;;;4991450;28;20045;-77
2022/05/14 08:51:13;;;;;;;;;;;16.20;97.40;;;;;;4991993;28;20038;-77
2022/05/14 08:53:40;;;;;;;21.55;6.53;;;16.20;97.50;;;;;;4991663;28;19921;-78
2022/05/14 08:56:32;;;;;;;20.45;5.90;;;16.30;97.30;;;;;;4990972;28;20026;-78
2022/05/14 08:59:22;;;;;;;12.02;4.78;;;16.30;97.00;;;;;;4991366;28;20030;-78
2022/05/14 09:01:48;;;;;;;13.70;4.82;;;16.40;97.10;;;;;;4990453;28;20356;-77
2022/05/14 09:04:17;;;;;;;14.73;4.97;;;16.40;97.00;;;;;;4991707;28;20034;-77
2022/05/14 09:06:45;;;;;;;12.52;4.57;;;16.40;97.10;;;;;;4991561;28;20026;-78
2022/05/14 09:09:11;;;;;;;15.77;5.00;;;16.50;97.20;;;;;;4991390;28;20128;-78
2022/05/14 09:11:45;;;;;;;13.10;3.78;;;16.50;97.20;;;;;;4991937;28;20056;-78
2022/05/14 09:14:31;;;;;;;11.10;3.72;;;16.60;97.20;;;;;;4991761;28;20109;-78
2022/05/14 09:17:05;;;;;;;12.18;4.55;;;16.60;97.20;;;;;;4991152;28;20501;-78
2022/05/14 09:19:40;;;;;;;10.80;4.40;;;16.60;97.00;;;;;;4991411;28;20031;-78
2022/05/14 09:22:24;;;;;;;16.35;5.28;;;16.60;97.00;;;;;;4991842;28;20026;-78
2022/05/14 09:24:53;;;;;;;12.75;4.75;;;16.70;96.90;;;;;;4991678;28;20030;-78
2022/05/14 09:27:30;;;;;;;13.23;4.25;;;16.80;96.90;;;;;;4991365;28;20027;-78
2022/05/14 09:30:00;;;;;;;11.77;3.72;;;16.80;96.80;;;;;;4991271;28;20037;-78
2022/05/14 09:32:41;;;;;;;17.38;6.43;;;16.80;97.00;;;;;;4991465;28;20040;-78
2022/05/14 09:35:17;;;;;;;17.10;6.22;;;16.90;96.60;;;;;;4991591;28;20105;-78
2022/05/14 09:37:43;;;;;;;13.68;5.35;;;16.90;96.50;;;;;;4991259;28;20430;-78
2022/05/14 09:40:24;;;;;;;13.73;4.78;;;16.90;96.70;;;;;;4990886;28;20027;-78
2022/05/14 09:43:05;;;;;;;13.65;4.90;;;17.00;96.80;;;;;;4991548;28;20429;-78
2022/05/14 09:45:36;;;;;;;14.80;5.40;;;17.00;96.60;;;;;;4990146;28;20034;-78
2022/05/14 09:48:10;;;;;;;14.63;4.40;;;17.10;96.60;;;;;;4991190;28;20100;-78
2022/05/14 09:50:35;;;;;;;10.15;4.22;;;17.10;96.60;;;;;;4991030;28;20041;-78
2022/05/14 09:53:05;;;;;;;13.75;4.18;;;17.10;96.60;;;;;;4991043;28;20022;-78
2022/05/14 09:56:08;;;;;;;13.48;4.97;;;17.10;96.60;;;;;;4991257;28;20039;-78
2022/05/14 09:59:10;;;;;;;16.48;5.28;;;17.10;96.50;;;;;;4990994;28;20026;-78
2022/05/14 10:01:51;;;;;;;16.77;5.13;;;17.20;96.10;;;;;;4972210;28;20070;-78
2022/05/14 10:04:41;;;;;;;12.57;4.30;;;17.30;95.90;;;;;;4991092;28;20048;-78
2022/05/14 10:07:39;;;;;;;13.93;4.57;;;17.40;96.00;;;;;;4990926;28;20062;-78
2022/05/14 10:10:11;;;;;;;14.82;4.63;;;17.40;95.80;;;;;;4981508;28;20049;-78
2022/05/14 10:12:45;;;;;;;17.58;5.20;;;17.50;95.80;;;;;;4993240;28;20513;-78
2022/05/14 10:15:40;;;;;;;17.77;6.50;;;17.50;95.70;;;;;;4994560;28;20034;-78
2022/05/14 10:18:29;;;;;;;18.45;6.65;;;17.50;95.50;;;;;;4994253;28;20045;-78
2022/05/14 10:21:09;;;;;;;20.23;7.88;;;17.50;95.50;;;;;;4994352;28;20027;-78
2022/05/14 10:27:04;;;;;;;18.70;7.57;;;17.50;95.60;;;;;;4994270;28;20117;-78
2022/05/14 10:29:42;;;;;;;25.30;8.27;;;17.60;95.50;;;;;;4994002;28;20038;-78
2022/05/14 10:32:12;;;;;;;17.13;6.32;;;17.60;95.40;;;;;;4994290;28;20038;-78
2022/05/14 10:34:52;;;;;;;15.10;5.15;;;17.70;94.60;;;;;;4992950;28;20031;-78
2022/05/14 10:37:31;;;;;;;11.95;3.55;;;17.80;94.30;;;;;;4994006;28;20026;-78
2022/05/14 10:40:27;;;;;;;11.23;3.92;;;17.80;93.90;;;;;;4993779;28;20479;-78
2022/05/14 10:42:53;;;;;;;11.90;4.47;;;17.80;94.00;;;;;;4992689;28;20375;-78
2022/05/14 10:45:32;;;;;;;13.15;4.40;;;17.80;94.00;;;;;;4994031;28;20033;-78
2022/05/14 10:48:01;;;;;;;;;;;17.80;94.30;;;;;;4994198;28;20117;-77
2022/05/14 10:50:30;;;;;;;14.20;4.40;;;18.00;94.20;;;;;;4992398;28;20362;-78
2022/05/14 10:52:58;;;;;;;16.48;4.53;;;18.10;93.40;;;;;;4993775;28;20030;-78
2022/05/14 10:55:31;;;;;;;12.50;4.95;;;18.10;93.50;;;;;;4993714;28;20081;-78
2022/05/14 10:58:03;;;;;;;15.55;4.88;;;18.10;93.60;;;;;;4993753;28;20042;-78
2022/05/14 11:00:39;;;;;;;19.30;5.75;;;18.20;93.50;;;;;;4992117;28;20461;-78
2022/05/14 11:03:10;;;;;;;17.77;4.45;;;18.20;93.60;;;;;;4993633;28;20045;-78
2022/05/14 11:05:58;;;;;;;13.20;4.15;;;18.20;93.60;;;;;;4993458;28;20498;-78
2022/05/14 11:08:36;;;;;;;10.25;4.50;;;18.20;94.10;;;;;;4993540;28;20438;-78
2022/05/14 11:11:11;;;;;;;17.67;5.28;;;18.20;93.60;;;;;;4993411;28;20030;-78
2022/05/14 11:13:37;;;;;;;13.77;5.72;;;18.40;93.80;;;;;;4992407;28;20035;-78
2022/05/14 11:16:13;;;;;;;12.65;4.60;;;18.40;93.40;;;;;;4993075;28;20026;-78
2022/05/14 11:19:04;;;;;;;10.90;3.70;;;18.40;93.50;;;;;;4992882;28;20041;-78
2022/05/14 11:21:44;;;;;;;12.00;3.97;;;18.40;93.60;;;;;;4993185;28;20423;-78
2022/05/14 11:24:13;;;;;;;13.43;3.38;;;18.40;93.70;;;;;;4993270;28;20114;-78
2022/05/14 11:26:51;;;;;;;11.35;3.35;;;18.50;93.00;;;;;;4991705;28;20030;-78
2022/05/14 11:29:27;;;;;;;9.38;4.55;;;18.60;92.40;;;;;;4993056;28;20049;-78
2022/05/14 11:32:09;;;;;;;12.98;4.13;;;18.70;91.60;;;;;;4993277;28;20278;-78
2022/05/14 11:34:36;;;;;;;12.95;3.90;;;18.70;91.80;;;;;;4992997;28;20042;-78
2022/05/14 11:37:04;;;;;;;12.38;4.10;;;18.70;91.70;;;;;;4992682;28;20065;-78
2022/05/14 11:39:34;;;;;;;11.00;4.03;;;18.80;91.00;;;;;;4991759;28;20034;-78
2022/05/14 11:42:25;;;;;;;17.75;4.20;;;18.90;90.90;;;;;;4992894;28;20046;-78
2022/05/14 11:45:13;;;;;;;13.05;3.50;;;18.90;90.80;;;;;;4991684;28;20084;-78
2022/05/14 11:48:09;;;;;;;11.57;3.75;;;19.00;90.50;;;;;;4992505;28;20471;-78
2022/05/14 11:50:49;;;;;;;14.40;3.38;;;19.00;90.30;;;;;;4992618;28;20031;-78
2022/05/14 11:53:49;;;;;;;10.82;3.60;;;19.00;90.00;;;;;;4992808;28;20117;-78
2022/05/14 11:56:46;;;;;;;10.30;3.33;;;19.00;89.40;;;;;;4992415;28;20434;-78
2022/05/14 11:59:33;;;;;;;14.50;3.45;;;19.00;89.70;;;;;;4992367;28;20042;-78
2022/05/14 12:02:05;;;;;;;10.68;3.17;;;19.00;90.00;;;;;;4991266;28;20501;-78
2022/05/14 12:04:36;;;;;;;8.65;3.00;;;19.00;90.10;;;;;;4992522;28;20034;-78
2022/05/14 12:07:31;;;;;;;14.27;3.60;;;18.90;90.30;;;;;;4992136;28;20034;-78
2022/05/14 12:10:24;;;;;;;10.50;3.20;;;18.90;90.10;;;;;;4992202;28;20037;-78
2022/05/14 12:13:26;;;;;;;14.13;3.67;;;18.90;90.00;;;;;;4992264;28;20030;-78
2022/05/14 12:15:56;;;;;;;11.43;3.15;;;19.10;87.70;;;;;;4969292;28;20066;-76
2022/05/14 12:18:22;;;;;;;11.50;3.17;;;19.30;84.90;;;;;;5033283;23;20141;-68
2022/05/14 12:20:59;;;;;;;11.50;2.80;;;19.30;85.00;;;;;;4972638;28;20019;-68
2022/05/14 12:23:41;;;;;;;11.45;3.35;;;19.30;85.50;;;;;;4972866;28;20037;-69
2022/05/14 12:26:28;;;;;;;14.95;4.07;;;19.40;87.20;;;;;;4972766;28;20030;-68
2022/05/14 12:28:57;;;;;;;15.00;3.92;;;19.60;86.00;;;;;;4972569;28;20035;-68
2022/05/14 12:34:20;;;;;;;12.15;3.40;;;19.60;85.60;;;;;;4972656;28;20031;-69
2022/05/14 12:36:51;;;;;;;10.85;3.55;;;19.70;86.00;;;;;;4972611;28;20027;-69
2022/05/14 12:39:22;;;;;;;11.55;3.17;;;19.70;84.80;;;;;;4972504;28;20103;-68
2022/05/14 12:41:52;;;;;;;10.68;2.90;;;19.70;85.30;;;;;;4972548;28;20031;-69
2022/05/14 12:44:21;;;;;;;9.18;3.05;;;19.70;84.80;;;;;;4971389;28;20065;-69
2022/05/14 12:46:54;;;;;;;10.27;2.80;;;19.70;85.00;;;;;;4972421;28;20062;-69
2022/05/14 12:49:42;;;;;;;12.43;4.28;;;19.80;84.90;;;;;;4972734;28;20085;-69
2022/05/14 12:52:17;;;;;;;13.68;3.40;;;19.80;85.10;;;;;;4972510;28;20057;-69
2022/05/14 12:55:04;;;;;;;11.52;3.35;;;19.90;85.50;;;;;;4972653;28;20215;-70
2022/05/14 12:57:33;;;;;;;12.65;3.13;;;20.00;84.00;;;;;;4972426;28;20031;-69
2022/05/14 13:00:00;;;;;;;14.80;2.85;;;20.00;83.50;;;;;;4971066;28;20068;-69
2022/05/14 13:02:29;;;;;;;10.98;3.30;;;20.00;83.80;;;;;;4972290;28;20037;-69
2022/05/14 13:05:38;;;;;;;10.25;3.00;;;20.00;83.20;;;;;;4972328;28;20480;-69
2022/05/14 13:08:16;;;;;;;12.25;3.10;;;20.20;82.80;;;;;;4972083;28;20035;-69
2022/05/14 13:10:51;;;;;;;14.82;2.80;;;20.20;82.80;;;;;;4972151;28;20093;-69
2022/05/14 13:13:27;;;;;;;12.88;2.58;;;20.10;83.40;;;;;;4971118;28;20039;-69
2022/05/14 13:15:53;;;;;;;14.18;3.38;;;20.10;82.40;;;;;;4972093;28;20027;-69